createdAt,value
2023-05-09T00:02:17.137Z,2.63
2023-05-09T00:04:43.980Z,2.80
2023-05-09T00:07:10.928Z,5.30
2023-05-09T00:09:37.624Z,2.53
2023-05-09T00:12:04.713Z,5.10
2023-05-09T00:14:33.420Z,4.22
2023-05-09T00:17:00.744Z,2.20
2023-05-09T00:19:27.559Z,2.97
2023-05-09T00:21:54.441Z,2.67
2023-05-09T00:24:21.142Z,2.50
2023-05-09T00:26:47.783Z,2.35
2023-05-09T00:29:14.462Z,3.85
2023-05-09T00:31:41.244Z,5.32
2023-05-09T00:34:08.009Z,2.42
2023-05-09T00:36:34.784Z,2.72
2023-05-09T00:39:01.711Z,3.47
2023-05-09T00:41:28.467Z,1.85
2023-05-09T00:43:55.296Z,6.30
2023-05-09T00:46:22.403Z,3.10
2023-05-09T00:48:49.321Z,1.90
2023-05-09T00:51:16.829Z,2.45
2023-05-09T00:53:44.707Z,3.42
2023-05-09T00:56:12.592Z,2.88
2023-05-09T00:58:39.367Z,4.25
2023-05-09T01:01:06.389Z,3.75
2023-05-09T01:03:33.237Z,3.85
2023-05-09T01:06:32.815Z,3.45
2023-05-09T01:09:08.007Z,3.28
2023-05-09T01:11:55.416Z,4.93
2023-05-09T01:15:04.322Z,3.05
2023-05-09T01:17:46.570Z,4.88
2023-05-09T01:20:16.758Z,5.60
2023-05-09T01:22:48.252Z,3.47
2023-05-09T01:25:34.729Z,3.50
2023-05-09T01:28:26.787Z,4.93
2023-05-09T01:30:55.127Z,4.70
2023-05-09T01:33:24.138Z,6.25
2023-05-09T01:35:57.797Z,2.90
2023-05-09T01:38:25.720Z,4.05
2023-05-09T01:40:55.320Z,3.22
2023-05-09T01:43:25.708Z,4.70
2023-05-09T01:45:53.665Z,3.85
2023-05-09T01:48:21.736Z,4.97
2023-05-09T01:50:49.115Z,4.07
2023-05-09T01:53:17.603Z,3.35
2023-05-09T01:55:45.877Z,5.70
2023-05-09T01:58:13.329Z,4.25
2023-05-09T02:00:41.082Z,4.50
2023-05-09T02:03:08.784Z,5.30
2023-05-09T02:05:37.414Z,2.65
2023-05-09T02:08:04.593Z,4.18
2023-05-09T02:10:33.709Z,3.33
2023-05-09T02:13:00.458Z,3.03
2023-05-09T02:15:29.120Z,6.70
2023-05-09T02:17:56.059Z,5.25
2023-05-09T02:20:22.757Z,8.93
2023-05-09T02:22:50.385Z,4.57
2023-05-09T02:25:18.559Z,4.30
2023-05-09T02:27:46.611Z,5.97
2023-05-09T02:30:23.167Z,6.35
2023-05-09T02:32:53.543Z,4.47
2023-05-09T02:35:21.937Z,6.15
2023-05-09T02:37:49.303Z,3.97
2023-05-09T02:40:16.495Z,5.85
2023-05-09T02:42:43.219Z,5.57
2023-05-09T02:45:11.126Z,4.75
2023-05-09T02:47:38.967Z,3.97
2023-05-09T02:50:06.453Z,4.53
2023-05-09T02:52:35.297Z,5.55
2023-05-09T02:55:03.445Z,6.93
2023-05-09T02:57:31.383Z,6.57
2023-05-09T02:59:58.157Z,6.20
2023-05-09T03:02:26.063Z,6.07
2023-05-09T03:04:53.181Z,6.65
2023-05-09T03:07:19.957Z,8.82
2023-05-09T03:09:46.792Z,6.05
2023-05-09T03:12:13.604Z,5.25
2023-05-09T03:14:40.454Z,6.88
2023-05-09T03:17:07.657Z,5.85
2023-05-09T03:19:36.001Z,7.22
2023-05-09T03:22:02.759Z,5.18
2023-05-09T03:24:32.841Z,5.78
2023-05-09T03:26:59.518Z,6.82
2023-05-09T03:29:26.376Z,7.22
2023-05-09T03:31:54.126Z,6.38
2023-05-09T03:34:20.955Z,5.32
2023-05-09T03:36:47.843Z,6.50
2023-05-09T03:39:15.441Z,5.32
2023-05-09T03:41:45.361Z,8.75
2023-05-09T03:44:13.045Z,7.80
2023-05-09T03:46:39.919Z,6.80
2023-05-09T03:49:07.040Z,6.40
2023-05-09T03:51:34.971Z,11.07
2023-05-09T03:54:03.558Z,6.60
2023-05-09T03:56:30.315Z,6.18
2023-05-09T03:58:57.286Z,7.50
2023-05-09T04:01:25.654Z,6.25
2023-05-09T04:03:53.633Z,7.40
2023-05-09T04:06:21.689Z,7.40
2023-05-09T04:08:48.451Z,7.15
2023-05-09T04:11:15.362Z,10.80
2023-05-09T04:13:45.322Z,9.35
2023-05-09T04:16:26.227Z,12.85
2023-05-09T04:18:53.943Z,8.27
2023-05-09T04:21:20.932Z,9.00
2023-05-09T04:23:50.396Z,7.70
2023-05-09T04:26:22.606Z,9.43
2023-05-09T04:28:52.796Z,7.57
2023-05-09T04:31:19.676Z,7.75
2023-05-09T04:33:49.730Z,9.55
2023-05-09T04:36:17.049Z,7.30
2023-05-09T04:38:44.253Z,8.57
2023-05-09T04:41:14.857Z,9.07
2023-05-09T04:43:42.467Z,7.15
2023-05-09T04:46:09.505Z,8.82
2023-05-09T04:48:36.995Z,5.70
2023-05-09T04:51:03.843Z,11.10
2023-05-09T04:53:30.751Z,6.95
2023-05-09T04:55:57.722Z,13.52
2023-05-09T04:58:25.691Z,9.23
2023-05-09T05:00:53.295Z,9.48
2023-05-09T05:03:20.046Z,13.23
2023-05-09T05:05:47.057Z,9.13
2023-05-09T05:08:13.952Z,9.30
2023-05-09T05:10:42.268Z,12.82
2023-05-09T05:13:11.791Z,8.98
2023-05-09T05:15:42.952Z,14.75
2023-05-09T05:18:10.724Z,11.50
2023-05-09T05:20:39.946Z,11.13
2023-05-09T05:23:06.766Z,8.07
2023-05-09T05:25:33.502Z,10.48
2023-05-09T05:28:01.087Z,8.57
2023-05-09T05:30:28.001Z,11.85
2023-05-09T05:32:54.812Z,10.85
2023-05-09T05:35:23.386Z,7.35
2023-05-09T05:37:51.023Z,12.23
2023-05-09T05:40:18.066Z,11.15
2023-05-09T05:42:47.899Z,7.15
2023-05-09T05:45:15.088Z,7.00
2023-05-09T05:47:46.584Z,12.75
2023-05-09T05:50:14.328Z,8.18
2023-05-09T05:52:42.141Z,8.93
2023-05-09T05:55:13.160Z,8.65
2023-05-09T05:57:40.772Z,8.77
2023-05-09T06:00:11.324Z,9.50
2023-05-09T06:02:44.913Z,7.40
2023-05-09T06:05:19.242Z,9.48
2023-05-09T06:08:11.655Z,7.88
2023-05-09T06:10:38.404Z,10.25
2023-05-09T06:13:05.229Z,21.85
2023-05-09T06:15:32.772Z,7.18
2023-05-09T06:17:59.828Z,7.93
2023-05-09T06:20:27.965Z,12.65
2023-05-09T06:22:54.768Z,10.05
2023-05-09T06:25:21.518Z,6.22
2023-05-09T06:27:48.315Z,7.45
2023-05-09T06:30:25.829Z,7.93
2023-05-09T06:32:54.456Z,9.38
2023-05-09T06:35:21.381Z,8.27
2023-05-09T06:37:48.989Z,7.10
2023-05-09T06:40:16.864Z,6.68
2023-05-09T06:42:44.245Z,7.25
2023-05-09T06:45:11.573Z,6.22
2023-05-09T06:47:38.450Z,7.53
2023-05-09T06:50:05.764Z,7.22
2023-05-09T06:52:32.535Z,8.05
2023-05-09T06:54:59.177Z,6.72
2023-05-09T06:57:26.243Z,5.97
2023-05-09T06:59:53.148Z,6.38
2023-05-09T07:02:19.941Z,5.40
2023-05-09T07:04:46.832Z,7.05
2023-05-09T07:07:13.745Z,4.55
2023-05-09T07:09:40.645Z,6.30
2023-05-09T07:12:07.686Z,6.47
2023-05-09T07:14:34.428Z,6.47
2023-05-09T07:17:18.121Z,5.82
2023-05-09T07:19:47.789Z,5.57
2023-05-09T07:22:14.491Z,5.93
2023-05-09T07:24:41.186Z,6.00
2023-05-09T07:27:07.925Z,7.78
2023-05-09T07:29:34.650Z,5.57
2023-05-09T07:32:01.606Z,4.82
2023-05-09T07:34:28.480Z,4.45
2023-05-09T07:36:55.272Z,6.68
2023-05-09T07:39:22.018Z,5.40
2023-05-09T07:41:48.944Z,6.40
2023-05-09T07:44:16.028Z,7.22
2023-05-09T07:46:42.995Z,5.00
2023-05-09T07:49:09.898Z,4.80
2023-05-09T07:51:36.698Z,6.78
2023-05-09T07:54:03.629Z,6.95
2023-05-09T07:56:30.452Z,8.25
2023-05-09T07:58:57.133Z,6.38
2023-05-09T08:01:23.883Z,5.10
2023-05-09T08:03:50.719Z,6.50
2023-05-09T08:06:17.666Z,7.75
2023-05-09T08:08:44.419Z,7.00
2023-05-09T08:11:11.154Z,6.88
2023-05-09T08:13:38.042Z,7.28
2023-05-09T08:16:05.743Z,5.88
2023-05-09T08:18:32.478Z,4.35
2023-05-09T08:20:59.611Z,9.95
2023-05-09T08:23:26.795Z,6.68
2023-05-09T08:25:54.666Z,5.72
2023-05-09T08:28:24.474Z,6.40
2023-05-09T08:30:51.927Z,5.00
2023-05-09T08:33:19.127Z,10.98
2023-05-09T08:35:46.190Z,5.53
2023-05-09T08:38:12.973Z,4.03
2023-05-09T08:40:41.206Z,3.33
2023-05-09T08:43:08.741Z,6.95
2023-05-09T08:45:39.641Z,6.45
2023-05-09T08:48:06.938Z,6.65
2023-05-09T08:50:35.408Z,4.55
2023-05-09T08:53:02.443Z,4.78
2023-05-09T08:55:29.764Z,3.60
2023-05-09T08:57:57.984Z,4.90
2023-05-09T09:00:26.289Z,5.38
2023-05-09T09:02:53.979Z,5.60
2023-05-09T09:05:40.008Z,3.05
2023-05-09T09:08:08.620Z,4.10
2023-05-09T09:10:35.741Z,4.43
2023-05-09T09:13:04.875Z,4.28
2023-05-09T09:18:30.451Z,4.45
2023-05-09T09:21:02.801Z,3.10
2023-05-09T09:23:31.647Z,3.73
2023-05-09T09:26:04.407Z,8.38
2023-05-09T09:28:31.186Z,3.90
2023-05-09T09:30:58.275Z,4.72
2023-05-09T09:33:27.073Z,4.47
2023-05-09T09:35:55.426Z,4.78
2023-05-09T09:38:23.764Z,6.65
2023-05-09T09:40:55.344Z,5.57
2023-05-09T09:43:32.188Z,5.03
2023-05-09T09:46:03.343Z,5.85
2023-05-09T09:48:34.817Z,3.63
2023-05-09T09:51:12.583Z,2.80
2023-05-09T09:53:40.851Z,3.17
2023-05-09T09:56:08.224Z,5.05
2023-05-09T09:58:35.548Z,4.97
2023-05-09T10:01:20.760Z,3.25
2023-05-09T10:03:48.130Z,4.75
2023-05-09T10:06:16.507Z,3.88
2023-05-09T10:08:48.872Z,3.13
2023-05-09T10:11:15.837Z,4.60
2023-05-09T10:13:43.729Z,3.90
2023-05-09T10:16:11.405Z,2.92
2023-05-09T10:18:42.156Z,4.38
2023-05-09T10:21:14.415Z,3.28
2023-05-09T10:23:45.639Z,4.70
2023-05-09T10:26:15.387Z,4.35
2023-05-09T10:28:44.867Z,4.60
2023-05-09T10:31:22.034Z,3.65
2023-05-09T10:33:50.956Z,3.05
2023-05-09T10:36:26.423Z,6.82
2023-05-09T10:38:54.813Z,2.70
2023-05-09T10:41:22.536Z,2.35
2023-05-09T10:43:49.660Z,2.10
2023-05-09T10:46:17.724Z,3.13
2023-05-09T10:48:45.618Z,2.40
2023-05-09T10:51:13.250Z,4.88
2023-05-09T10:53:48.581Z,2.80
2023-05-09T10:56:32.510Z,5.00
2023-05-09T10:59:00.165Z,3.50
2023-05-09T11:01:30.895Z,3.42
2023-05-09T11:03:59.098Z,6.03
2023-05-09T11:06:46.273Z,3.58
2023-05-09T11:09:28.715Z,5.85
2023-05-09T11:12:04.384Z,3.00
2023-05-09T11:14:43.391Z,2.88
2023-05-09T11:17:23.246Z,5.13
2023-05-09T11:19:53.316Z,5.45
2023-05-09T11:22:26.253Z,3.13
2023-05-09T11:25:00.451Z,3.40
2023-05-09T11:27:28.522Z,3.03
2023-05-09T11:29:59.637Z,4.00
2023-05-09T11:32:30.810Z,3.00
2023-05-09T11:35:11.474Z,2.88
2023-05-09T11:37:50.647Z,2.15
2023-05-09T11:40:19.346Z,2.78
2023-05-09T11:42:56.270Z,2.33
2023-05-09T11:45:27.370Z,2.55
2023-05-09T11:47:54.446Z,2.63
2023-05-09T11:53:24.790Z,4.97
2023-05-09T11:55:51.579Z,3.25
2023-05-09T11:58:18.289Z,3.03
2023-05-09T12:00:45.668Z,2.95
2023-05-09T12:03:12.672Z,3.10
2023-05-09T12:05:39.575Z,2.33
2023-05-09T12:08:06.947Z,2.47
2023-05-09T12:10:38.018Z,4.25
2023-05-09T12:13:04.870Z,2.85
2023-05-09T12:15:38.242Z,1.85
2023-05-09T12:18:07.843Z,3.08
2023-05-09T12:20:47.111Z,2.08
2023-05-09T12:23:17.861Z,2.10
2023-05-09T12:25:49.202Z,2.20
2023-05-09T12:28:16.515Z,1.42
2023-05-09T12:30:44.948Z,2.00
2023-05-09T12:33:12.429Z,2.40
2023-05-09T12:35:40.130Z,2.65
2023-05-09T12:38:06.884Z,2.70
2023-05-09T12:40:33.795Z,4.40
2023-05-09T12:43:02.690Z,3.15
2023-05-09T12:45:32.949Z,3.78
2023-05-09T12:48:02.262Z,2.58
2023-05-09T12:50:36.477Z,3.75
2023-05-09T12:53:04.443Z,4.40
2023-05-09T12:55:32.831Z,3.97
2023-05-09T12:58:03.617Z,2.08
2023-05-09T13:00:45.578Z,1.88
2023-05-09T13:03:25.850Z,7.82
2023-05-09T13:06:00.130Z,3.80
2023-05-09T13:08:28.742Z,3.97
2023-05-09T13:11:08.027Z,2.95
2023-05-09T13:13:35.166Z,3.78
2023-05-09T13:16:05.536Z,4.50
2023-05-09T13:18:33.282Z,3.95
2023-05-09T13:21:00.041Z,1.75
2023-05-09T13:23:26.726Z,1.65
2023-05-09T13:25:53.634Z,3.30
2023-05-09T13:28:20.441Z,7.30
2023-05-09T13:30:47.208Z,17.40
2023-05-09T13:33:25.192Z,7.95
2023-05-09T13:35:52.308Z,13.15
2023-05-09T13:38:19.018Z,3.08
2023-05-09T13:40:45.956Z,5.68
2023-05-09T13:43:12.725Z,5.72
2023-05-09T13:45:39.428Z,4.53
2023-05-09T13:48:06.508Z,4.63
2023-05-09T13:50:34.215Z,5.72
2023-05-09T13:53:00.982Z,5.50
2023-05-09T13:58:39.113Z,6.78
2023-05-09T14:01:06.412Z,6.03
2023-05-09T14:03:33.113Z,2.55
2023-05-09T14:05:59.827Z,8.57
2023-05-09T14:08:26.551Z,5.45
2023-05-09T14:10:53.571Z,2.70
2023-05-09T14:13:20.333Z,15.23
2023-05-09T14:15:47.180Z,3.75
2023-05-09T14:18:17.687Z,5.43
2023-05-09T14:20:45.698Z,3.45
2023-05-09T14:23:12.587Z,5.43
2023-05-09T14:25:39.276Z,8.00
2023-05-09T14:28:38.135Z,4.45
2023-05-09T14:31:04.925Z,1.55
2023-05-09T14:33:32.794Z,3.22
2023-05-09T14:36:01.180Z,2.55
2023-05-09T14:38:27.896Z,2.78
2023-05-09T14:40:54.574Z,1.67
2023-05-09T14:43:22.188Z,4.15
2023-05-09T14:45:48.877Z,1.70
2023-05-09T14:48:16.311Z,1.05
2023-05-09T14:50:43.190Z,5.50
2023-05-09T14:53:11.242Z,1.40
2023-05-09T14:55:37.948Z,2.45
2023-05-09T14:58:04.622Z,2.30
2023-05-09T15:00:46.787Z,6.05
2023-05-09T15:03:13.917Z,3.00
2023-05-09T15:05:41.399Z,1.67
2023-05-09T15:08:08.654Z,1.58
2023-05-09T15:10:35.484Z,1.75
2023-05-09T15:13:05.600Z,4.55
2023-05-09T15:15:32.728Z,1.38
2023-05-09T15:18:00.833Z,1.17
2023-05-09T15:20:27.600Z,1.88
2023-05-09T15:22:54.330Z,4.95
2023-05-09T15:25:21.847Z,1.35
2023-05-09T15:27:50.372Z,2.60
2023-05-09T15:30:17.425Z,1.40
2023-05-09T15:32:44.397Z,2.75
2023-05-09T15:35:11.330Z,1.70
2023-05-09T15:37:38.419Z,0.75
2023-05-09T15:40:05.663Z,1.80
2023-05-09T15:42:32.301Z,2.10
2023-05-09T15:44:59.218Z,1.30
2023-05-09T15:47:26.012Z,5.55
2023-05-09T15:49:53.372Z,1.45
2023-05-09T15:52:20.131Z,2.58
2023-05-09T15:54:46.972Z,1.65
2023-05-09T15:57:13.822Z,1.42
2023-05-09T15:59:41.196Z,4.55
2023-05-09T16:02:08.101Z,4.25
2023-05-09T16:04:34.883Z,7.00
2023-05-09T16:07:03.652Z,2.15
2023-05-09T16:09:30.454Z,5.28
2023-05-09T16:11:57.166Z,1.35
2023-05-09T16:14:23.898Z,1.40
2023-05-09T16:16:51.582Z,1.33
2023-05-09T16:19:18.306Z,1.70
2023-05-09T16:21:48.341Z,3.42
2023-05-09T16:24:15.072Z,4.80
2023-05-09T16:26:41.771Z,1.38
2023-05-09T16:29:08.600Z,2.35
2023-05-09T16:31:35.803Z,1.67
2023-05-09T16:36:47.572Z,2.45
2023-05-09T16:39:14.379Z,1.50
2023-05-09T16:41:41.142Z,2.40
2023-05-09T16:44:07.880Z,4.97
2023-05-09T16:46:34.608Z,1.65
2023-05-09T16:49:01.345Z,3.60
2023-05-09T16:51:28.046Z,1.60
2023-05-09T16:53:55.154Z,1.17
2023-05-09T16:56:22.545Z,2.88
2023-05-09T16:58:49.880Z,1.27
2023-05-09T17:01:16.732Z,1.33
2023-05-09T17:03:43.481Z,1.25
2023-05-09T17:06:10.343Z,1.05
2023-05-09T17:08:37.103Z,1.80
2023-05-09T17:11:05.354Z,5.13
2023-05-09T17:13:32.249Z,1.52
2023-05-09T17:15:59.061Z,1.65
2023-05-09T17:18:36.544Z,1.75
2023-05-09T17:21:05.145Z,2.88
2023-05-09T17:23:31.857Z,6.15
2023-05-09T17:25:58.810Z,1.35
2023-05-09T17:28:25.529Z,1.25
2023-05-09T17:30:52.446Z,1.27
2023-05-09T17:33:19.313Z,1.52
2023-05-09T17:35:49.310Z,2.42
2023-05-09T17:38:16.672Z,1.58
2023-05-09T17:40:44.212Z,1.00
2023-05-09T17:43:11.805Z,1.50
2023-05-09T17:45:38.673Z,1.65
2023-05-09T17:48:05.418Z,1.17
2023-05-09T17:50:32.930Z,3.50
2023-05-09T17:52:59.715Z,1.25
2023-05-09T17:55:26.406Z,1.85
2023-05-09T17:57:53.051Z,2.10
2023-05-09T18:00:19.932Z,1.63
2023-05-09T18:02:47.993Z,4.15
2023-05-09T18:05:14.842Z,1.92
2023-05-09T18:07:41.564Z,1.88
2023-05-09T18:10:09.287Z,1.50
2023-05-09T18:12:37.368Z,4.05
2023-05-09T18:15:04.888Z,2.88
2023-05-09T18:17:31.776Z,3.88
2023-05-09T18:19:58.678Z,2.00
2023-05-09T18:22:25.537Z,3.92
2023-05-09T18:24:52.825Z,3.90
2023-05-09T18:27:19.479Z,2.90
2023-05-09T18:29:47.506Z,2.10
2023-05-09T18:32:14.403Z,1.98
2023-05-09T18:34:41.690Z,1.98
2023-05-09T18:37:08.975Z,2.85
2023-05-09T18:39:35.734Z,3.42
2023-05-09T18:42:02.527Z,1.52
2023-05-09T18:44:29.965Z,2.63
2023-05-09T18:46:57.952Z,0.93
2023-05-09T18:49:26.187Z,4.40
2023-05-09T18:51:56.503Z,1.30
2023-05-09T18:55:14.721Z,4.50
2023-05-09T18:57:41.466Z,4.88
2023-05-09T19:00:08.713Z,3.22
2023-05-09T19:02:35.521Z,3.25
2023-05-09T19:05:06.285Z,4.85
2023-05-09T19:07:36.263Z,2.97
2023-05-09T19:10:08.311Z,2.38
2023-05-09T19:12:35.308Z,4.80
2023-05-09T19:15:02.658Z,1.92
2023-05-09T19:17:29.579Z,4.82
2023-05-09T19:19:56.874Z,2.42
2023-05-09T19:22:23.618Z,2.90
2023-05-09T19:24:51.465Z,3.35
2023-05-09T19:27:19.018Z,13.52
2023-05-09T19:29:46.975Z,2.10
2023-05-09T19:32:15.451Z,3.08
2023-05-09T19:34:42.378Z,5.18
2023-05-09T19:37:09.119Z,1.50
2023-05-09T19:39:35.780Z,1.52
2023-05-09T19:44:58.080Z,5.03
2023-05-09T19:47:24.854Z,1.00
2023-05-09T19:49:51.729Z,1.90
2023-05-09T19:52:18.509Z,0.80
2023-05-09T19:54:45.521Z,0.90
2023-05-09T19:57:13.172Z,3.50
2023-05-09T19:59:41.116Z,2.22
2023-05-09T20:02:07.787Z,3.13
2023-05-09T20:04:36.229Z,1.70
2023-05-09T20:07:04.482Z,1.58
2023-05-09T20:09:32.877Z,1.88
2023-05-09T20:12:02.114Z,1.40
2023-05-09T20:14:28.919Z,1.42
2023-05-09T20:16:57.363Z,2.00
2023-05-09T20:19:24.315Z,1.83
2023-05-09T20:21:51.109Z,1.48
2023-05-09T20:24:17.998Z,1.50
2023-05-09T20:26:44.804Z,1.42
2023-05-09T20:29:11.639Z,3.22
2023-05-09T20:31:38.514Z,0.70
2023-05-09T20:34:05.512Z,1.38
2023-05-09T20:36:32.508Z,4.13
2023-05-09T20:38:59.327Z,0.70
2023-05-09T20:41:26.235Z,3.38
2023-05-09T20:43:53.178Z,6.30
2023-05-09T20:46:20.023Z,8.20
2023-05-09T20:48:47.164Z,1.60
2023-05-09T20:51:13.912Z,1.10
2023-05-09T20:53:40.713Z,1.48
2023-05-09T20:56:07.569Z,9.00
2023-05-09T20:58:34.989Z,1.60
2023-05-09T21:01:02.060Z,0.93
2023-05-09T21:03:29.039Z,3.38
2023-05-09T21:05:55.902Z,4.68
2023-05-09T21:08:23.177Z,2.80
2023-05-09T21:10:53.243Z,1.92
2023-05-09T21:13:20.255Z,0.98
2023-05-09T21:18:54.581Z,0.85
2023-05-09T21:21:21.336Z,4.03
2023-05-09T21:23:48.071Z,2.63
2023-05-09T21:26:14.998Z,2.30
2023-05-09T21:28:41.997Z,3.58
2023-05-09T21:31:11.146Z,0.68
2023-05-09T21:33:38.269Z,1.73
2023-05-09T21:36:05.189Z,4.00
2023-05-09T21:38:31.905Z,1.27
2023-05-09T21:40:58.719Z,1.33
2023-05-09T21:43:25.487Z,2.85
2023-05-09T21:45:52.288Z,2.25
2023-05-09T21:48:19.109Z,1.15
2023-05-09T21:50:48.671Z,0.93
2023-05-09T21:53:15.455Z,2.35
2023-05-09T21:55:42.225Z,1.00
2023-05-09T21:58:08.892Z,0.98
2023-05-09T22:00:35.669Z,0.95
2023-05-09T22:03:02.509Z,1.50
2023-05-09T22:05:29.418Z,0.47
2023-05-09T22:07:56.123Z,1.08
2023-05-09T22:10:22.933Z,1.02
2023-05-09T22:12:49.688Z,4.47
2023-05-09T22:15:16.420Z,1.48
2023-05-09T22:17:50.580Z,1.47
2023-05-09T22:20:17.600Z,1.13
2023-05-09T22:22:44.596Z,0.50
2023-05-09T22:25:11.412Z,0.80
2023-05-09T22:27:38.110Z,0.63
2023-05-09T22:30:05.935Z,0.50
2023-05-09T22:32:32.683Z,1.50
2023-05-09T22:34:59.457Z,0.40
2023-05-09T22:37:26.491Z,0.50
2023-05-09T22:39:53.344Z,0.95
2023-05-09T22:42:20.092Z,0.40
2023-05-09T22:44:49.614Z,0.82
2023-05-09T22:47:16.429Z,0.98
2023-05-09T22:49:45.188Z,0.68
2023-05-09T22:52:28.852Z,0.60
2023-05-09T22:54:55.590Z,2.10
2023-05-09T22:57:23.699Z,0.68
2023-05-09T22:59:51.095Z,0.88
2023-05-09T23:02:17.902Z,0.90
2023-05-09T23:04:44.712Z,0.90
2023-05-09T23:07:11.527Z,0.57
2023-05-09T23:09:38.679Z,1.42
2023-05-09T23:12:05.735Z,1.30
2023-05-09T23:14:32.431Z,0.95
2023-05-09T23:16:59.255Z,1.40
2023-05-09T23:19:26.033Z,0.73
2023-05-09T23:21:53.222Z,0.57
2023-05-09T23:24:20.021Z,0.60
2023-05-09T23:26:46.897Z,0.73
2023-05-09T23:29:13.622Z,0.80
2023-05-09T23:31:40.639Z,0.68
2023-05-09T23:34:07.366Z,0.50
2023-05-09T23:36:34.100Z,0.90
2023-05-09T23:39:00.805Z,1.00
2023-05-09T23:41:27.607Z,0.50
2023-05-09T23:43:54.506Z,1.08
2023-05-09T23:46:21.226Z,0.88
2023-05-09T23:48:48.016Z,0.50
2023-05-09T23:51:14.690Z,0.70
2023-05-09T23:53:41.548Z,0.80
2023-05-09T23:56:08.743Z,1.20
2023-05-09T23:58:35.508Z,0.68
